Time;durP1;ratioP1;P1;durP2;ratioP2;P2;SDS_P1;SDS_P2;PMS_P1;PMS_P2;Temp;Humidity;BMP_temperature;BMP_pressure;BME280_temperature;BME280_humidity;BME280_pressure;Samples;Min_cycle;Max_cycle;Signal;HPM_P1;HPM_P2
2022/05/18 00:02:07;;;;;;;;;;;;;;;;;;5057506;28;19920;-83
2022/05/18 00:04:33;;;;;;;;;;;;;;;;;;5057793;28;19922;-82
2022/05/18 00:06:58;;;;;;;;;;;;;;;;;;5075563;28;20007;-81
2022/05/18 00:09:23;;;;;;;;;;;;;;;;;;5075293;28;19913;-81
2022/05/18 00:11:49;;;;;;;;;;;;;;;;;;5075135;28;19948;-82
2022/05/18 00:14:14;;;;;;;;;;;;;;;;;;5057779;28;20367;-82
2022/05/18 00:16:39;;;;;;;;;;;;;;;;;;5057560;28;19912;-83
2022/05/18 00:19:05;;;;;;;;;;;;;;;;;;5075226;28;20353;-82
2022/05/18 00:21:31;;;;;;;;;;;;;;;;;;5057482;28;19978;-81
2022/05/18 00:23:58;;;;;;;;;;;;;;;;;;5075154;28;20226;-82
2022/05/18 00:26:24;;;;;;;;;;;;;;;;;;5075105;28;20293;-83
2022/05/18 00:28:49;;;;;;;;;;;;;;;;;;5057419;28;19913;-83
2022/05/18 00:31:17;;;;;;;;;;;;;;;;;;5075031;28;19958;-82
2022/05/18 00:33:42;;;;;;;;;;;;;;;;;;5040969;28;19913;-83
2022/05/18 00:36:08;;;;;;;;;;;;;;;;;;5057387;28;19977;-82
2022/05/18 00:38:33;;;;;;;;;;;;;;;;;;5074955;28;20321;-82
2022/05/18 00:40:58;;;;;;;;;;;;;;;;;;5074527;28;19919;-83
2022/05/18 00:43:30;;;;;;;;;;;;;;;;;;5057180;28;19913;-83
2022/05/18 00:45:55;;;;;;;;;;;;;;;;;;5075112;28;19981;-82
2022/05/18 00:48:21;;;;;;;;;;;;;;;;;;5074885;28;20338;-81
2022/05/18 00:50:46;;;;;;;;;;;;;;;;;;5074738;28;19913;-81
2022/05/18 00:53:30;;;;;;;;;;;;;;;;;;5057095;28;19919;-83
2022/05/18 00:55:56;;;;;;;;;;;;;;;;;;5074703;28;19916;-83
2022/05/18 00:58:23;;;;;;;;;;;;;;;;;;5074823;28;19962;-83
2022/05/18 01:00:48;;;;;;;;;;;;;;;;;;5040496;28;19920;-84
2022/05/18 01:03:15;;;;;;;;;;;;;;;;;;5074975;28;19912;-83
2022/05/18 01:05:41;;;;;;;;;;;;;;;;;;5074679;28;19935;-83
2022/05/18 01:08:06;;;;;;;;;;;;;;;;;;5040740;28;20329;-81
2022/05/18 01:10:31;;;;;;;;;;;;;;;;;;5078909;28;19913;-81
2022/05/18 01:12:57;;;;;;;;;;;;;;;;;;5079233;28;19995;-83
2022/05/18 01:15:22;;;;;;;;;;;;;;;;;;5085272;28;19909;-83
2022/05/18 01:17:49;;;;;;;;;;;;;;;;;;5082898;28;19912;-83
2022/05/18 01:20:16;;;;;;;;;;;;;;;;;;5065120;28;19912;-83
2022/05/18 01:22:41;;;;;;;;;;;;;;;;;;5065365;28;19908;-82
2022/05/18 01:25:19;;;;;;;;;;;;;;;;;;5079077;28;19920;-82
2022/05/18 01:27:44;;;;;;;;;;;;;;;;;;5057096;28;19916;-82
2022/05/18 01:30:10;;;;;;;;;;;;;;;;;;5057255;28;19912;-82
2022/05/18 01:32:39;;;;;;;;;;;;;;;;;;5058078;28;19954;-82
2022/05/18 01:35:05;;;;;;;;;;;;;;;;;;5075081;28;19916;-83
2022/05/18 01:37:30;;;;;;;;;;;;;;;;;;5074516;28;19912;-83
2022/05/18 01:39:58;;;;;;;;;;;;;;;;;;5056460;28;19908;-82
2022/05/18 01:42:23;;;;;;;;;;;;;;;;;;5078066;28;19912;-82
2022/05/18 01:44:48;;;;;;;;;;;;;;;;;;5077973;28;20352;-82
2022/05/18 01:47:14;;;;;;;;;;;;;;;;;;5043512;28;19958;-83
2022/05/18 01:49:40;;;;;;;;;;;;;;;;;;5078400;28;19912;-82
2022/05/18 01:52:05;;;;;;;;;;;;;;;;;;5060640;28;19935;-83
2022/05/18 01:54:35;;;;;;;;;;;;;;;;;;5060123;28;19916;-82
2022/05/18 01:57:01;;;;;;;;;;;;;;;;;;5059933;28;19913;-82
2022/05/18 01:59:26;;;;;;;;;;;;;;;;;;5077777;28;19915;-83
2022/05/18 02:01:51;;;;;;;;;;;;;;;;;;5077673;28;19912;-81
2022/05/18 02:04:17;;;;;;;;;;;;;;;;;;5077927;28;19915;-82
2022/05/18 02:06:42;;;;;;;;;;;;;;;;;;5060153;28;19912;-82
2022/05/18 02:09:07;;;;;;;;;;;;;;;;;;5059409;28;19926;-82
2022/05/18 02:11:33;;;;;;;;;;;;;;;;;;5059996;28;19961;-82
2022/05/18 02:13:59;;;;;;;;;;;;;;;;;;5059927;28;19947;-83
2022/05/18 02:16:24;;;;;;;;;;;;;;;;;;5077819;28;19912;-83
2022/05/18 02:18:49;;;;;;;;;;;;;;;;;;5077626;28;20014;-82
2022/05/18 02:21:15;;;;;;;;;;;;;;;;;;5059834;28;19913;-83
2022/05/18 02:23:41;;;;;;;;;;;;;;;;;;5077065;28;19912;-82
2022/05/18 02:26:07;;;;;;;;;;;;;;;;;;5059715;28;19913;-84
2022/05/18 02:28:32;;;;;;;;;;;;;;;;;;5059707;28;19919;-84
2022/05/18 02:30:58;;;;;;;;;;;;;;;;;;5077429;28;19912;-82
2022/05/18 02:33:23;;;;;;;;;;;;;;;;;;5077455;28;19997;-82
2022/05/18 02:35:49;;;;;;;;;;;;;;;;;;5077590;28;19978;-82
2022/05/18 02:38:14;;;;;;;;;;;;;;;;;;5077035;28;19913;-83
2022/05/18 02:40:39;;;;;;;;;;;;;;;;;;5077372;28;19913;-82
2022/05/18 02:43:05;;;;;;;;;;;;;;;;;;5077281;28;19913;-83
2022/05/18 02:45:31;;;;;;;;;;;;;;;;;;5077352;28;19913;-83
2022/05/18 02:47:56;;;;;;;;;;;;;;;;;;5077162;28;19953;-83
2022/05/18 02:50:22;;;;;;;;;;;;;;;;;;5058857;28;19951;-82
2022/05/18 02:52:47;;;;;;;;;;;;;;;;;;5057686;28;19920;-81
2022/05/18 02:57:56;;;;;;;;;;;;;;;;;;5076836;28;20003;-83
2022/05/18 03:00:21;;;;;;;;;;;;;;;;;;5076907;28;19951;-83
2022/05/18 03:02:47;;;;;;;;;;;;;;;;;;5058994;28;19959;-82
2022/05/18 03:05:12;;;;;;;;;;;;;;;;;;5076281;28;19912;-82
2022/05/18 03:07:37;;;;;;;;;;;;;;;;;;5076825;28;19912;-83
2022/05/18 03:10:03;;;;;;;;;;;;;;;;;;5076384;28;20365;-82
2022/05/18 03:12:28;;;;;;;;;;;;;;;;;;5059005;28;19955;-82
2022/05/18 03:14:54;;;;;;;;;;;;;;;;;;5058373;28;20237;-82
2022/05/18 03:17:19;;;;;;;;;;;;;;;;;;5058845;28;19912;-83
2022/05/18 03:19:44;;;;;;;;;;;;;;;;;;5075983;28;19920;-82
2022/05/18 03:24:54;;;;;;;;;;;;;;;;;;5076310;28;19919;-82
2022/05/18 03:27:19;;;;;;;;;;;;;;;;;;5076152;28;19912;-82
2022/05/18 03:29:44;;;;;;;;;;;;;;;;;;5058478;28;20645;-83
2022/05/18 03:32:10;;;;;;;;;;;;;;;;;;5085673;28;19912;-83
2022/05/18 03:34:35;;;;;;;;;;;;;;;;;;5087831;28;19912;-83
2022/05/18 03:37:00;;;;;;;;;;;;;;;;;;5093071;28;19913;-82
2022/05/18 03:39:26;;;;;;;;;;;;;;;;;;5078694;28;19919;-83
2022/05/18 03:41:52;;;;;;;;;;;;;;;;;;5076443;28;19912;-83
2022/05/18 03:44:19;;;;;;;;;;;;;;;;;;5076183;28;19912;-85
2022/05/18 03:46:44;;;;;;;;;;;;;;;;;;5058520;28;20314;-83
2022/05/18 03:49:10;;;;;;;;;;;;;;;;;;5058035;28;19921;-83
2022/05/18 03:51:37;;;;;;;;;;;;;;;;;;5076187;28;19912;-77
2022/05/18 03:54:02;;;;;;;;;;;;;;;;;;5077210;28;19912;-76
2022/05/18 03:56:28;;;;;;;;;;;;;;;;;;5044870;28;19988;-76
2022/05/18 03:58:53;;;;;;;;;;;;;;;;;;5058902;28;19912;-76
2022/05/18 04:01:18;;;;;;;;;;;;;;;;;;5078035;28;19912;-77
2022/05/18 04:03:44;;;;;;;;;;;;;;;;;;5076317;28;19994;-76
2022/05/18 04:06:10;;;;;;;;;;;;;;;;;;5077645;28;19912;-76
2022/05/18 04:08:35;;;;;;;;;;;;;;;;;;5057626;28;19912;-76
2022/05/18 04:11:00;;;;;;;;;;;;;;;;;;5075264;28;19912;-76
2022/05/18 04:13:26;;;;;;;;;;;;;;;;;;5056888;28;20270;-77
2022/05/18 04:15:52;;;;;;;;;;;;;;;;;;5056434;28;19913;-76
2022/05/18 04:18:17;;;;;;;;;;;;;;;;;;5055936;28;19912;-76
2022/05/18 04:20:43;;;;;;;;;;;;;;;;;;5055894;28;20309;-76
2022/05/18 04:23:08;;;;;;;;;;;;;;;;;;5073724;28;19912;-77
2022/05/18 04:25:35;;;;;;;;;;;;;;;;;;5073591;28;19970;-77
2022/05/18 04:28:01;;;;;;;;;;;;;;;;;;5073400;28;20320;-77
2022/05/18 04:30:26;;;;;;;;;;;;;;;;;;5055592;28;19913;-76
2022/05/18 04:32:52;;;;;;;;;;;;;;;;;;5056861;28;19913;-76
2022/05/18 04:35:18;;;;;;;;;;;;;;;;;;5063037;28;19971;-77
2022/05/18 04:37:43;;;;;;;;;;;;;;;;;;5075624;28;19958;-76
2022/05/18 04:40:09;;;;;;;;;;;;;;;;;;5053166;28;19917;-77
2022/05/18 04:42:34;;;;;;;;;;;;;;;;;;5060432;28;20538;-78
2022/05/18 04:44:59;;;;;;;;;;;;;;;;;;5063798;28;19913;-76
2022/05/18 04:47:25;;;;;;;;;;;;;;;;;;5061386;28;20342;-75
2022/05/18 04:49:51;;;;;;;;;;;;;;;;;;5074266;28;19924;-76
2022/05/18 04:52:19;;;;;;;;;;;;;;;;;;5071971;28;19939;-77
2022/05/18 04:54:44;;;;;;;;;;;;;;;;;;5066699;28;19923;-77
2022/05/18 04:57:10;;;;;;;;;;;;;;;;;;5056167;28;20254;-76
2022/05/18 04:59:35;;;;;;;;;;;;;;;;;;5035475;28;20253;-76
2022/05/18 05:02:02;;;;;;;;;;;;;;;;;;5053005;28;19917;-77
2022/05/18 05:04:27;;;;;;;;;;;;;;;;;;5052284;28;19913;-76
2022/05/18 05:06:53;;;;;;;;;;;;;;;;;;5055347;28;19920;-77
2022/05/18 05:09:22;;;;;;;;;;;;;;;;;;5053578;28;19912;-77
2022/05/18 05:11:47;;;;;;;;;;;;;;;;;;5053855;28;20241;-77
2022/05/18 05:14:13;;;;;;;;;;;;;;;;;;5054218;28;19916;-76
2022/05/18 05:16:38;;;;;;;;;;;;;;;;;;5057528;28;20410;-76
2022/05/18 05:19:03;;;;;;;;;;;;;;;;;;5058637;28;19923;-76
2022/05/18 05:21:28;;;;;;;;;;;;;;;;;;5057356;28;19920;-75
2022/05/18 05:23:54;;;;;;;;;;;;;;;;;;5056047;28;19912;-75
2022/05/18 05:26:19;;;;;;;;;;;;;;;;;;5057633;28;19912;-75
2022/05/18 05:28:44;;;;;;;;;;;;;;;;;;5057454;28;20010;-74
2022/05/18 05:31:10;;;;;;;;;;;;;;;;;;5057529;28;20013;-76
2022/05/18 05:33:36;;;;;;;;;;;;;;;;;;5056692;28;19913;-76
2022/05/18 05:36:01;;;;;;;;;;;;;;;;;;5058162;28;20350;-75
2022/05/18 05:38:27;;;;;;;;;;;;;;;;;;5058424;28;19943;-76
2022/05/18 05:40:52;;;;;;;;;;;;;;;;;;5057068;28;19912;-76
2022/05/18 05:43:17;;;;;;;;;;;;;;;;;;5040499;28;19962;-75
2022/05/18 05:45:53;;;;;;;;;;;;;;;;;;5056836;28;19927;-77
2022/05/18 05:48:18;;;;;;;;;;;;;;;;;;5056515;28;19970;-76
2022/05/18 05:50:43;;;;;;;;;;;;;;;;;;5057452;28;19912;-76
2022/05/18 05:53:09;;;;;;;;;;;;;;;;;;5057710;28;19913;-76
2022/05/18 05:55:34;;;;;;;;;;;;;;;;;;5072736;28;20015;-75
2022/05/18 05:58:00;;;;;;;;;;;;;;;;;;5077684;28;19923;-77
2022/05/18 06:00:25;;;;;;;;;;;;;;;;;;5059449;28;20318;-76
2022/05/18 06:02:50;;;;;;;;;;;;;;;;;;5077535;28;19912;-76
2022/05/18 06:05:16;;;;;;;;;;;;;;;;;;5077235;28;20299;-76
2022/05/18 06:07:42;;;;;;;;;;;;;;;;;;5059645;28;19919;-74
2022/05/18 06:10:07;;;;;;;;;;;;;;;;;;5059493;28;20254;-75
2022/05/18 06:12:32;;;;;;;;;;;;;;;;;;5077047;28;20342;-76
2022/05/18 06:14:59;;;;;;;;;;;;;;;;;;5077169;28;19918;-75
2022/05/18 06:17:24;;;;;;;;;;;;;;;;;;5077335;28;20272;-75
2022/05/18 06:19:49;;;;;;;;;;;;;;;;;;5059060;28;20014;-76
2022/05/18 06:22:15;;;;;;;;;;;;;;;;;;5077146;28;19912;-75
2022/05/18 06:24:40;;;;;;;;;;;;;;;;;;5077417;28;19913;-74
2022/05/18 06:27:06;;;;;;;;;;;;;;;;;;5059073;28;19916;-76
2022/05/18 06:29:31;;;;;;;;;;;;;;;;;;5058771;28;19912;-74
2022/05/18 06:31:56;;;;;;;;;;;;;;;;;;5076722;28;19912;-75
2022/05/18 06:34:22;;;;;;;;;;;;;;;;;;5076649;28;19912;-77
2022/05/18 06:36:50;;;;;;;;;;;;;;;;;;5076964;28;19917;-75
2022/05/18 06:39:18;;;;;;;;;;;;;;;;;;5058801;28;19912;-75
2022/05/18 06:41:43;;;;;;;;;;;;;;;;;;5059110;28;20326;-76
2022/05/18 06:44:08;;;;;;;;;;;;;;;;;;5058787;28;19912;-75
2022/05/18 06:46:34;;;;;;;;;;;;;;;;;;5076649;28;19912;-75
2022/05/18 06:48:59;;;;;;;;;;;;;;;;;;5058202;28;20003;-75
2022/05/18 06:51:25;;;;;;;;;;;;;;;;;;5076488;28;19924;-74
2022/05/18 06:53:54;;;;;;;;;;;;;;;;;;5058616;28;19912;-76
2022/05/18 06:56:19;;;;;;;;;;;;;;;;;;5076817;28;20299;-76
2022/05/18 06:58:46;;;;;;;;;;;;;;;;;;5075901;28;19912;-76
2022/05/18 07:01:11;;;;;;;;;;;;;;;;;;5076072;28;19913;-77
2022/05/18 07:03:36;;;;;;;;;;;;;;;;;;5076086;28;19912;-76
2022/05/18 07:06:02;;;;;;;;;;;;;;;;;;5058683;28;20014;-76
2022/05/18 07:08:27;;;;;;;;;;;;;;;;;;5058775;28;20288;-75
2022/05/18 07:10:53;;;;;;;;;;;;;;;;;;5057925;28;19912;-75
2022/05/18 07:13:18;;;;;;;;;;;;;;;;;;5041188;28;19941;-75
2022/05/18 07:15:47;;;;;;;;;;;;;;;;;;5075916;28;19965;-75
2022/05/18 07:18:12;;;;;;;;;;;;;;;;;;5058184;28;20325;-76
2022/05/18 07:20:37;;;;;;;;;;;;;;;;;;5075752;28;19937;-75
2022/05/18 07:23:03;;;;;;;;;;;;;;;;;;5057712;28;19908;-75
2022/05/18 07:25:28;;;;;;;;;;;;;;;;;;5075940;28;19912;-76
2022/05/18 07:27:53;;;;;;;;;;;;;;;;;;5057842;28;20026;-75
2022/05/18 07:30:19;;;;;;;;;;;;;;;;;;5075729;28;19952;-76
2022/05/18 07:32:44;;;;;;;;;;;;;;;;;;5057968;28;19962;-75
2022/05/18 07:35:09;;;;;;;;;;;;;;;;;;5075354;28;19912;-76
2022/05/18 07:37:35;;;;;;;;;;;;;;;;;;5075180;28;20257;-76
2022/05/18 07:40:00;;;;;;;;;;;;;;;;;;5057255;28;19912;-75
2022/05/18 07:42:26;;;;;;;;;;;;;;;;;;5075346;28;19909;-75
2022/05/18 07:44:52;;;;;;;;;;;;;;;;;;5057540;28;19912;-77
2022/05/18 07:47:20;;;;;;;;;;;;;;;;;;5075654;28;19912;-76
2022/05/18 07:49:45;;;;;;;;;;;;;;;;;;5075313;28;20009;-76
2022/05/18 07:52:11;;;;;;;;;;;;;;;;;;5057498;28;20359;-77
2022/05/18 07:54:37;;;;;;;;;;;;;;;;;;5040355;28;19916;-76
2022/05/18 07:57:05;;;;;;;;;;;;;;;;;;5074893;28;19974;-75
2022/05/18 07:59:30;;;;;;;;;;;;;;;;;;5075008;28;20226;-76
2022/05/18 08:01:56;;;;;;;;;;;;;;;;;;5075097;28;19970;-76
2022/05/18 08:04:21;;;;;;;;;;;;;;;;;;5074695;28;19913;-76
2022/05/18 08:06:47;;;;;;;;;;;;;;;;;;5075531;28;19912;-76
2022/05/18 08:09:12;;;;;;;;;;;;;;;;;;5074744;28;20409;-74
2022/05/18 08:17:06;;;;;;;;;;;;;;;;;;5075389;28;19942;-77
2022/05/18 08:19:31;;;;;;;;;;;;;;;;;;5074676;28;19916;-77
2022/05/18 08:21:56;;;;;;;;;;;;;;;;;;5075341;28;19913;-76
2022/05/18 08:24:21;;;;;;;;;;;;;;;;;;5074475;28;20296;-77
2022/05/18 08:26:47;;;;;;;;;;;;;;;;;;5074877;28;20331;-76
2022/05/18 08:29:12;;;;;;;;;;;;;;;;;;5074639;28;19920;-76
2022/05/18 08:31:37;;;;;;;;;;;;;;;;;;5057099;28;20276;-76
2022/05/18 08:34:03;;;;;;;;;;;;;;;;;;5056651;28;20394;-76
2022/05/18 08:36:31;;;;;;;;;;;;;;;;;;5074638;28;19913;-76
2022/05/18 08:38:56;;;;;;;;;;;;;;;;;;5056996;28;19912;-76
2022/05/18 08:41:23;;;;;;;;;;;;;;;;;;5056405;28;19912;-76
2022/05/18 08:43:51;;;;;;;;;;;;;;;;;;5056608;28;19912;-76
2022/05/18 08:46:20;;;;;;;;;;;;;;;;;;5056985;28;19912;-75
2022/05/18 08:48:49;;;;;;;;;;;;;;;;;;5057456;28;19919;-75
2022/05/18 08:51:21;;;;;;;;;;;;;;;;;;5055823;28;19912;-76
2022/05/18 08:53:49;;;;;;;;;;;;;;;;;;5074019;28;19939;-76
2022/05/18 08:56:24;;;;;;;;;;;;;;;;;;5056208;28;19952;-76
2022/05/18 08:58:52;;;;;;;;;;;;;;;;;;5074323;28;19912;-77
2022/05/18 09:01:28;;;;;;;;;;;;;;;;;;5056560;28;19924;-75
2022/05/18 09:03:57;;;;;;;;;;;;;;;;;;5056441;28;19912;-75
2022/05/18 09:06:33;;;;;;;;;;;;;;;;;;5056545;28;19939;-76
2022/05/18 09:11:50;;;;;;;;;;;;;;;;;;5074175;28;19927;-77
2022/05/18 09:14:17;;;;;;;;;;;;;;;;;;5056478;28;19913;-76
2022/05/18 09:16:44;;;;;;;;;;;;;;;;;;5074484;28;19951;-77
2022/05/18 09:19:22;;;;;;;;;;;;;;;;;;5056439;28;19969;-77
2022/05/18 09:21:50;;;;;;;;;;;;;;;;;;5073988;28;19912;-75
2022/05/18 09:24:29;;;;;;;;;;;;;;;;;;5074462;28;19951;-75
2022/05/18 09:26:54;;;;;;;;;;;;;;;;;;5056393;28;19946;-76
2022/05/18 09:29:26;;;;;;;;;;;;;;;;;;5073948;28;20229;-75
2022/05/18 09:31:51;;;;;;;;;;;;;;;;;;5039666;28;20322;-75
2022/05/18 09:34:17;;;;;;;;;;;;;;;;;;5073870;28;19919;-74
2022/05/18 09:36:42;;;;;;;;;;;;;;;;;;5055546;28;19932;-74
2022/05/18 09:39:17;;;;;;;;;;;;;;;;;;5074139;28;19946;-75
2022/05/18 09:41:50;;;;;;;;;;;;;;;;;;5055876;28;19962;-75
2022/05/18 09:44:18;;;;;;;;;;;;;;;;;;5073431;28;19916;-74
2022/05/18 09:46:43;;;;;;;;;;;;;;;;;;5055298;28;20265;-74
2022/05/18 09:49:29;;;;;;;;;;;;;;;;;;5035414;28;19916;-75
2022/05/18 09:51:55;;;;;;;;;;;;;;;;;;5056514;28;20289;-74
2022/05/18 09:54:20;;;;;;;;;;;;;;;;;;5055306;28;19916;-75
2022/05/18 09:56:53;;;;;;;;;;;;;;;;;;5073422;28;19923;-77
2022/05/18 09:59:20;;;;;;;;;;;;;;;;;;5055602;28;19915;-75
2022/05/18 10:07:30;;;;;;;;;;;;;;;;;;5059610;28;20334;-75
2022/05/18 10:10:00;;;;;;;;;;;;;;;;;;5041804;28;19913;-76
2022/05/18 10:12:30;;;;;;;;;;;;;;;;;;5057028;28;19919;-75
2022/05/18 10:15:03;;;;;;;;;;;;;;;;;;5039587;28;19912;-74
2022/05/18 10:17:30;;;;;;;;;;;;;;;;;;5022444;28;19920;-74
2022/05/18 10:19:59;;;;;;;;;;;;;;;;;;5038064;28;19912;-73
2022/05/18 10:22:25;;;;;;;;;;;;;;;;;;5038048;28;19913;-75
2022/05/18 10:25:09;;;;;;;;;;;;;;;;;;5022295;28;19994;-75
2022/05/18 10:27:36;;;;;;;;;;;;;;;;;;5055206;28;20196;-73
2022/05/18 10:30:04;;;;;;;;;;;;;;;;;;5056659;28;19913;-74
2022/05/18 10:32:31;;;;;;;;;;;;;;;;;;5038462;28;19913;-75
2022/05/18 10:34:57;;;;;;;;;;;;;;;;;;5022044;28;20361;-76
2022/05/18 10:37:26;;;;;;;;;;;;;;;;;;5022352;28;19913;-73
2022/05/18 10:39:53;;;;;;;;;;;;;;;;;;5056504;28;19913;-74
2022/05/18 10:42:25;;;;;;;;;;;;;;;;;;5038675;28;19995;-74
2022/05/18 10:44:55;;;;;;;;;;;;;;;;;;5038850;28;19912;-74
2022/05/18 10:47:40;;;;;;;;;;;;;;;;;;5038647;28;19954;-74
2022/05/18 10:50:29;;;;;;;;;;;;;;;;;;5055582;28;19913;-74
2022/05/18 10:53:00;;;;;;;;;;;;;;;;;;5047813;28;19913;-74
2022/05/18 10:55:26;;;;;;;;;;;;;;;;;;5034840;28;19927;-74
2022/05/18 10:57:54;;;;;;;;;;;;;;;;;;5036564;28;20004;-72
2022/05/18 11:00:22;;;;;;;;;;;;;;;;;;5018669;28;19913;-75
2022/05/18 11:02:50;;;;;;;;;;;;;;;;;;5019210;28;19919;-74
2022/05/18 11:05:16;;;;;;;;;;;;;;;;;;5035959;28;20329;-75
2022/05/18 11:07:42;;;;;;;;;;;;;;;;;;5036273;28;19999;-75
2022/05/18 11:10:07;;;;;;;;;;;;;;;;;;5036210;28;19961;-74
2022/05/18 11:12:42;;;;;;;;;;;;;;;;;;5017576;28;20012;-75
2022/05/18 11:15:09;;;;;;;;;;;;;;;;;;5018782;28;19959;-75
2022/05/18 11:17:36;;;;;;;;;;;;;;;;;;5018297;28;19913;-76
2022/05/18 11:20:05;;;;;;;;;;;;;;;;;;5001428;28;19913;-75
2022/05/18 11:22:37;;;;;;;;;;;;;;;;;;5018346;28;19913;-76
2022/05/18 11:25:02;;;;;;;;;;;;;;;;;;5035870;28;20318;-75
2022/05/18 11:27:29;;;;;;;;;;;;;;;;;;5036092;28;19913;-75
2022/05/18 11:30:08;;;;;;;;;;;;;;;;;;5018162;28;19920;-76
2022/05/18 11:32:34;;;;;;;;;;;;;;;;;;5017696;28;19913;-74
2022/05/18 11:35:06;;;;;;;;;;;;;;;;;;5034886;28;20377;-75
2022/05/18 11:37:49;;;;;;;;;;;;;;;;;;5035497;28;19913;-75
2022/05/18 11:40:24;;;;;;;;;;;;;;;;;;5035675;28;19938;-75
2022/05/18 11:42:55;;;;;;;;;;;;;;;;;;5035421;28;19920;-75
2022/05/18 11:45:27;;;;;;;;;;;;;;;;;;5034274;28;20313;-76
2022/05/18 11:47:56;;;;;;;;;;;;;;;;;;5035185;28;19952;-74
2022/05/18 11:50:41;;;;;;;;;;;;;;;;;;5017447;28;19913;-74
2022/05/18 11:53:09;;;;;;;;;;;;;;;;;;5035184;28;19920;-75
2022/05/18 11:55:53;;;;;;;;;;;;;;;;;;5050385;28;19928;-75
2022/05/18 11:58:25;;;;;;;;;;;;;;;;;;5055279;28;19913;-75
2022/05/18 12:00:56;;;;;;;;;;;;;;;;;;5038112;28;20000;-75
2022/05/18 12:03:42;;;;;;;;;;;;;;;;;;5054677;28;19913;-75
2022/05/18 12:06:13;;;;;;;;;;;;;;;;;;5054950;28;19909;-74
2022/05/18 12:09:00;;;;;;;;;;;;;;;;;;5055120;28;20322;-75
2022/05/18 12:11:30;;;;;;;;;;;;;;;;;;5036997;28;20455;-75
2022/05/18 12:14:14;;;;;;;;;;;;;;;;;;5037380;28;19917;-75
2022/05/18 12:16:54;;;;;;;;;;;;;;;;;;5054990;28;19942;-74
2022/05/18 12:19:25;;;;;;;;;;;;;;;;;;5054918;28;19913;-74
2022/05/18 12:21:55;;;;;;;;;;;;;;;;;;5036947;28;19912;-74
2022/05/18 12:24:20;;;;;;;;;;;;;;;;;;5054676;28;20557;-75
2022/05/18 12:26:45;;;;;;;;;;;;;;;;;;5037090;28;19991;-75
2022/05/18 12:29:12;;;;;;;;;;;;;;;;;;5054778;28;19913;-76
2022/05/18 12:31:37;;;;;;;;;;;;;;;;;;5036685;28;19916;-76
2022/05/18 12:34:05;;;;;;;;;;;;;;;;;;5037255;28;19958;-75
2022/05/18 12:36:45;;;;;;;;;;;;;;;;;;5037011;28;19917;-74
2022/05/18 12:39:12;;;;;;;;;;;;;;;;;;5055175;28;19963;-75
2022/05/18 12:41:38;;;;;;;;;;;;;;;;;;5054532;28;19913;-74
2022/05/18 12:44:04;;;;;;;;;;;;;;;;;;5037086;28;19912;-75
2022/05/18 12:46:33;;;;;;;;;;;;;;;;;;5054245;28;19932;-74
2022/05/18 12:48:59;;;;;;;;;;;;;;;;;;5036954;28;19913;-74
2022/05/18 12:51:27;;;;;;;;;;;;;;;;;;5036940;28;19959;-74
2022/05/18 12:53:55;;;;;;;;;;;;;;;;;;5054587;28;19909;-74
2022/05/18 12:56:21;;;;;;;;;;;;;;;;;;5036770;28;19913;-75
2022/05/18 12:58:53;;;;;;;;;;;;;;;;;;5054650;28;19908;-76
2022/05/18 13:01:19;;;;;;;;;;;;;;;;;;5037075;28;19920;-75
2022/05/18 13:03:54;;;;;;;;;;;;;;;;;;5020488;28;19913;-76
2022/05/18 13:06:29;;;;;;;;;;;;;;;;;;5036674;28;19912;-75
2022/05/18 13:09:18;;;;;;;;;;;;;;;;;;5054074;28;19913;-75
2022/05/18 13:11:43;;;;;;;;;;;;;;;;;;5042443;28;20046;-74
2022/05/18 13:14:19;;;;;;;;;;;;;;;;;;5054221;28;19954;-74
2022/05/18 13:16:47;;;;;;;;;;;;;;;;;;5036690;28;20005;-77
2022/05/18 13:19:19;;;;;;;;;;;;;;;;;;5036723;28;19962;-73
2022/05/18 13:21:59;;;;;;;;;;;;;;;;;;5054066;28;19917;-75
2022/05/18 13:24:26;;;;;;;;;;;;;;;;;;5036306;28;19920;-74
2022/05/18 13:26:52;;;;;;;;;;;;;;;;;;5054314;28;19948;-79
2022/05/18 13:29:30;;;;;;;;;;;;;;;;;;5036533;28;19998;-81
2022/05/18 13:31:57;;;;;;;;;;;;;;;;;;5036385;28;19970;-80
2022/05/18 13:34:26;;;;;;;;;;;;;;;;;;5036959;28;19922;-81
2022/05/18 13:36:56;;;;;;;;;;;;;;;;;;5038585;28;19979;-80
2022/05/18 13:39:26;;;;;;;;;;;;;;;;;;5040481;28;19979;-80
2022/05/18 13:41:51;;;;;;;;;;;;;;;;;;5058702;28;19983;-82
2022/05/18 13:44:16;;;;;;;;;;;;;;;;;;5058032;28;19982;-81
2022/05/18 13:46:42;;;;;;;;;;;;;;;;;;5040135;28;19943;-80
2022/05/18 13:49:17;;;;;;;;;;;;;;;;;;5039764;28;19913;-80
2022/05/18 13:51:45;;;;;;;;;;;;;;;;;;5040200;28;20011;-80
2022/05/18 13:54:13;;;;;;;;;;;;;;;;;;5039782;28;19970;-78
2022/05/18 13:56:39;;;;;;;;;;;;;;;;;;5057772;28;19991;-79
2022/05/18 13:59:08;;;;;;;;;;;;;;;;;;5057358;28;20326;-80
2022/05/18 14:01:37;;;;;;;;;;;;;;;;;;5057580;28;19947;-79
2022/05/18 14:04:02;;;;;;;;;;;;;;;;;;5039628;28;19919;-78
2022/05/18 14:06:28;;;;;;;;;;;;;;;;;;5039748;28;19916;-79
2022/05/18 14:08:58;;;;;;;;;;;;;;;;;;5039423;28;20270;-79
2022/05/18 14:11:24;;;;;;;;;;;;;;;;;;5039672;28;19999;-81
2022/05/18 14:13:51;;;;;;;;;;;;;;;;;;5057147;28;19913;-81
2022/05/18 14:16:21;;;;;;;;;;;;;;;;;;5039388;28;20003;-80
2022/05/18 14:18:48;;;;;;;;;;;;;;;;;;5039429;28;20258;-81
2022/05/18 14:21:13;;;;;;;;;;;;;;;;;;5022796;28;20370;-81
2022/05/18 14:23:40;;;;;;;;;;;;;;;;;;5039322;28;20016;-82
2022/05/18 14:26:06;;;;;;;;;;;;;;;;;;5039573;28;19995;-82
2022/05/18 14:28:35;;;;;;;;;;;;;;;;;;5038931;28;19955;-81
2022/05/18 14:31:00;;;;;;;;;;;;;;;;;;5039234;28;19913;-80
2022/05/18 14:33:32;;;;;;;;;;;;;;;;;;5039055;28;19920;-84
2022/05/18 14:35:58;;;;;;;;;;;;;;;;;;5039227;28;20023;-81
2022/05/18 14:38:25;;;;;;;;;;;;;;;;;;5056718;28;20034;-79
2022/05/18 14:40:52;;;;;;;;;;;;;;;;;;5039270;28;19952;-80
2022/05/18 14:43:19;;;;;;;;;;;;;;;;;;5039210;28;20257;-83
2022/05/18 14:45:45;;;;;;;;;;;;;;;;;;5022644;28;19999;-80
2022/05/18 14:48:21;;;;;;;;;;;;;;;;;;5038950;28;19962;-79
2022/05/18 14:50:46;;;;;;;;;;;;;;;;;;5057035;28;19913;-79
2022/05/18 14:53:12;;;;;;;;;;;;;;;;;;5022610;28;19912;-79
2022/05/18 14:55:39;;;;;;;;;;;;;;;;;;5055932;28;19979;-78
2022/05/18 14:58:04;;;;;;;;;;;;;;;;;;5056705;28;19916;-78
2022/05/18 15:00:31;;;;;;;;;;;;;;;;;;5056890;28;19912;-81
2022/05/18 15:03:01;;;;;;;;;;;;;;;;;;5038841;28;20223;-79
2022/05/18 15:05:27;;;;;;;;;;;;;;;;;;5039562;28;19909;-76
2022/05/18 15:07:53;;;;;;;;;;;;;;;;;;5038753;28;19920;-74
2022/05/18 15:10:23;;;;;;;;;;;;;;;;;;5038504;28;19958;-75
2022/05/18 15:12:51;;;;;;;;;;;;;;;;;;5038803;28;20046;-79
2022/05/18 15:15:16;;;;;;;;;;;;;;;;;;5038759;28;19913;-80
2022/05/18 15:17:52;;;;;;;;;;;;;;;;;;5056270;28;20243;-81
2022/05/18 15:20:21;;;;;;;;;;;;;;;;;;5055948;28;19982;-80
2022/05/18 15:22:50;;;;;;;;;;;;;;;;;;5056006;28;20413;-81
2022/05/18 15:25:28;;;;;;;;;;;;;;;;;;5056043;28;19927;-81
2022/05/18 15:27:53;;;;;;;;;;;;;;;;;;5056057;28;19961;-81
2022/05/18 15:30:18;;;;;;;;;;;;;;;;;;5056048;28;20007;-82
2022/05/18 15:32:44;;;;;;;;;;;;;;;;;;5038269;28;19971;-81
2022/05/18 15:35:13;;;;;;;;;;;;;;;;;;5055729;28;19912;-80
2022/05/18 15:37:40;;;;;;;;;;;;;;;;;;5038019;28;20246;-81
2022/05/18 15:40:05;;;;;;;;;;;;;;;;;;5056034;28;19913;-80
2022/05/18 15:42:31;;;;;;;;;;;;;;;;;;5057165;28;19913;-81
2022/05/18 15:44:56;;;;;;;;;;;;;;;;;;5021244;28;20314;-81
2022/05/18 15:47:22;;;;;;;;;;;;;;;;;;5055604;28;20007;-81
2022/05/18 15:50:08;;;;;;;;;;;;;;;;;;5055476;28;20285;-81
2022/05/18 15:52:33;;;;;;;;;;;;;;;;;;5053688;28;19913;-81
2022/05/18 15:55:03;;;;;;;;;;;;;;;;;;5055230;28;19917;-82
2022/05/18 15:57:30;;;;;;;;;;;;;;;;;;5021033;28;20314;-83
2022/05/18 15:59:56;;;;;;;;;;;;;;;;;;5036974;28;20273;-79
2022/05/18 16:02:21;;;;;;;;;;;;;;;;;;5041561;28;19912;-82
2022/05/18 16:04:46;;;;;;;;;;;;;;;;;;5037887;28;19919;-82
2022/05/18 16:07:12;;;;;;;;;;;;;;;;;;5061326;28;20349;-81
2022/05/18 16:09:37;;;;;;;;;;;;;;;;;;5067869;28;20306;-81
2022/05/18 16:12:03;;;;;;;;;;;;;;;;;;5054250;28;19964;-81
2022/05/18 16:14:28;;;;;;;;;;;;;;;;;;5044656;28;20377;-81
2022/05/18 16:16:53;;;;;;;;;;;;;;;;;;5055285;28;19999;-82
2022/05/18 16:19:19;;;;;;;;;;;;;;;;;;5037082;28;20326;-82
2022/05/18 16:21:44;;;;;;;;;;;;;;;;;;5036945;28;20333;-81
2022/05/18 16:24:14;;;;;;;;;;;;;;;;;;5037034;28;19913;-82
2022/05/18 16:26:39;;;;;;;;;;;;;;;;;;5037397;28;20273;-81
2022/05/18 16:29:05;;;;;;;;;;;;;;;;;;5055385;28;19935;-82
2022/05/18 16:31:31;;;;;;;;;;;;;;;;;;5020504;28;19936;-82
2022/05/18 16:33:56;;;;;;;;;;;;;;;;;;5036976;28;20311;-82
2022/05/18 16:36:21;;;;;;;;;;;;;;;;;;5054713;28;19955;-81
2022/05/18 16:38:47;;;;;;;;;;;;;;;;;;5055004;28;19913;-82
2022/05/18 16:41:14;;;;;;;;;;;;;;;;;;5038342;28;19913;-82
2022/05/18 16:43:39;;;;;;;;;;;;;;;;;;5056253;28;20006;-81
2022/05/18 16:46:05;;;;;;;;;;;;;;;;;;5039026;28;19967;-81
2022/05/18 16:48:30;;;;;;;;;;;;;;;;;;5056098;28;19913;-81
2022/05/18 16:50:56;;;;;;;;;;;;;;;;;;5056698;28;19972;-81
2022/05/18 16:53:27;;;;;;;;;;;;;;;;;;5058201;28;20325;-81
2022/05/18 16:55:53;;;;;;;;;;;;;;;;;;5034238;28;19999;-83
2022/05/18 16:58:19;;;;;;;;;;;;;;;;;;5000800;28;19992;-82
2022/05/18 17:00:44;;;;;;;;;;;;;;;;;;5035558;28;19944;-82
2022/05/18 17:03:09;;;;;;;;;;;;;;;;;;5017730;28;19913;-82
2022/05/18 17:11:03;;;;;;;;;;;;;;;;;;5034969;28;20004;-83
2022/05/18 17:13:28;;;;;;;;;;;;;;;;;;5038503;28;19924;-82